Time,TemperatureF,DewpointF,PressureIn,WindDirection,WindDirectionDegrees,WindSpeedMPH,WindSpeedGustMPH,Humidity,HourlyPrecipIn,Conditions,Clouds,dailyrainin,SoftwareType,DateUTC
2013-02-05 00:03:00,25.7,18.9,29.84,NNW,342,0.0,0.0,75,0.00,CLR,CLR,0.00,WeatherDisplay:10.34,2013-02-05 07:03:00,
2013-02-05 00:08:00,25.6,18.8,29.84,NNW,342,0.0,1.0,75,0.00,CLR,CLR,0.00,WeatherDisplay:10.34,2013-02-05 07:08:00,
2013-02-05 00:13:00,25.5,18.7,29.84,NNW,342,0.0,1.0,75,0.00,CLR,CLR,0.00,WeatherDisplay:10.34,2013-02-05 07:13:00,
2013-02-05 00:18:00,25.5,19.0,29.84,NNW,342,0.0,0.0,76,0.00,CLR,CLR,0.00,WeatherDisplay:10.34,2013-02-05 07:18:00,
2013-02-05 00:23:00,25.5,19.0,29.84,NNW,342,0.0,0.0,76,0.00,CLR,CLR,0.00,WeatherDisplay:10.34,2013-02-05 07:23:00,
2013-02-05 00:28:00,25.4,18.9,29.84,SSW,211,5.0,5.0,76,0.00,CLR,CLR,0.00,WeatherDisplay:10.34,2013-02-05 07:28:00,
2013-02-05 00:33:00,25.2,18.7,29.85,SSW,210,0.0,0.0,76,0.00,CLR,CLR,0.00,WeatherDisplay:10.34,2013-02-05 07:33:00,
2013-02-05 00:38:00,25.2,18.7,29.85,SSW,210,0.0,0.0,76,0.00,CLR,CLR,0.00,WeatherDisplay:10.34,2013-02-05 07:38:00,
2013-02-05 00:43:00,25.0,18.5,29.85,SSW,210,1.0,1.0,76,0.00,CLR,CLR,0.00,WeatherDisplay:10.34,2013-02-05 07:43:00,
2013-02-05 00:48:00,24.9,18.7,29.85,SSW,210,1.0,2.0,77,0.00,CLR,CLR,0.00,WeatherDisplay:10.34,2013-02-05 07:48:00,
2013-02-05 00:53:00,24.9,18.7,29.84,SSW,213,1.0,1.0,77,0.00,CLR,CLR,0.00,WeatherDisplay:10.34,2013-02-05 07:53:00,
2013-02-05 00:58:00,24.9,18.7,29.84,SSW,213,0.0,0.0,77,0.00,CLR,CLR,0.00,WeatherDisplay:10.34,2013-02-05 07:58:00,
2013-02-05 01:03:00,25.0,19.1,29.84,SSW,213,0.0,1.0,78,0.00,CLR,CLR,0.00,WeatherDisplay:10.34,2013-02-05 08:03:00,
2013-02-05 01:08:00,25.1,19.2,29.84,SSW,213,3.0,3.0,78,0.00,CLR,CLR,0.00,WeatherDisplay:10.34,2013-02-05 08:08:00,
2013-02-05 01:13:00,25.2,19.3,29.85,SSW,213,0.0,1.0,78,0.00,CLR,CLR,0.00,WeatherDisplay:10.34,2013-02-05 08:13:00,
2013-02-05 01:18:00,25.3,19.4,29.85,SSW,213,3.0,3.0,78,0.00,CLR,CLR,0.00,WeatherDisplay:10.34,2013-02-05 08:18:00,
2013-02-05 01:23:00,25.4,19.5,29.85,SSW,213,0.0,0.0,78,0.00,CLR,CLR,0.00,WeatherDisplay:10.34,2013-02-05 08:23:00,
2013-02-05 01:28:00,25.4,19.5,29.85,SSW,213,1.0,1.0,78,0.00,CLR,CLR,0.00,WeatherDisplay:10.34,2013-02-05 08:28:00,
2013-02-05 01:33:00,25.8,19.9,29.85,NW,319,2.0,3.0,78,0.00,CLR,CLR,0.00,WeatherDisplay:10.34,2013-02-05 08:33:00,
2013-02-05 01:38:00,26.0,19.8,29.85,NW,319,0.0,0.0,77,0.00,CLR,CLR,0.00,WeatherDisplay:10.34,2013-02-05 08:38:00,
2013-02-05 01:43:00,26.2,20.0,29.85,NW,319,4.0,4.0,77,0.00,CLR,CLR,0.00,WeatherDisplay:10.34,2013-02-05 08:43:00,
2013-02-05 01:48:00,26.2,19.7,29.85,NW,319,0.0,0.0,76,0.00,CLR,CLR,0.00,WeatherDisplay:10.34,2013-02-05 08:48:00,
2013-02-05 01:53:00,26.1,19.6,29.86,SSW,210,1.0,2.0,76,0.00,CLR,CLR,0.00,WeatherDisplay:10.34,2013-02-05 08:53:00,
2013-02-05 01:58:00,25.9,19.4,29.86,SSW,210,0.0,0.0,76,0.00,CLR,CLR,0.00,WeatherDisplay:10.34,2013-02-05 08:58:00,
2013-02-05 02:03:00,25.7,19.2,29.86,NE,53,1.0,2.0,76,0.00,CLR,CLR,0.00,WeatherDisplay:10.34,2013-02-05 09:03:00,
2013-02-05 02:08:00,25.6,19.1,29.86,NNE,22,3.0,3.0,76,0.00,CLR,CLR,0.00,WeatherDisplay:10.34,2013-02-05 09:08:00,
2013-02-05 02:13:00,25.7,19.5,29.86,NNW,338,3.0,3.0,77,0.00,CLR,CLR,0.00,WeatherDisplay:10.34,2013-02-05 09:13:00,
2013-02-05 02:18:00,25.8,19.3,29.86,SE,140,3.0,3.0,76,0.00,CLR,CLR,0.00,WeatherDisplay:10.34,2013-02-05 09:18:00,
2013-02-05 02:23:00,25.4,18.9,29.86,SE,140,0.0,1.0,76,0.00,CLR,CLR,0.00,WeatherDisplay:10.34,2013-02-05 09:23:00,
2013-02-05 02:28:00,25.3,18.8,29.86,SE,140,0.0,0.0,76,0.00,CLR,CLR,0.00,WeatherDisplay:10.34,2013-02-05 09:28:00,
2013-02-05 02:33:00,25.1,18.6,29.87,SE,140,0.0,0.0,76,0.00,CLR,CLR,0.00,WeatherDisplay:10.34,2013-02-05 09:33:00,
2013-02-05 02:38:00,25.0,18.5,29.87,SE,140,0.0,0.0,76,0.00,CLR,CLR,0.00,WeatherDisplay:10.34,2013-02-05 09:38:00,
2013-02-05 02:43:00,24.8,18.3,29.87,SE,140,0.0,0.0,76,0.00,CLR,CLR,0.00,WeatherDisplay:10.34,2013-02-05 09:43:00,
2013-02-05 02:48:00,24.6,18.1,29.87,SE,140,2.0,2.0,76,0.00,CLR,CLR,0.00,WeatherDisplay:10.34,2013-02-05 09:48:00,
2013-02-05 02:53:00,24.3,18.1,29.86,SE,140,0.0,1.0,77,0.00,CLR,CLR,0.00,WeatherDisplay:10.34,2013-02-05 09:53:00,
2013-02-05 02:58:00,24.0,17.8,29.86,NNW,345,4.0,4.0,77,0.00,CLR,CLR,0.00,WeatherDisplay:10.34,2013-02-05 09:58:00,
2013-02-05 03:03:00,24.0,18.1,29.86,NNW,336,1.0,3.0,78,0.00,CLR,CLR,0.00,WeatherDisplay:10.34,2013-02-05 10:03:00,
2013-02-05 03:08:00,24.0,18.1,29.86,NNW,336,0.0,0.0,78,0.00,CLR,CLR,0.00,WeatherDisplay:10.34,2013-02-05 10:08:00,
2013-02-05 03:13:00,24.0,18.1,29.85,NNW,336,0.0,1.0,78,0.00,CLR,CLR,0.00,WeatherDisplay:10.34,2013-02-05 10:13:00,
2013-02-05 03:18:00,23.9,18.0,29.85,WNW,296,2.0,2.0,78,0.00,CLR,CLR,0.00,WeatherDisplay:10.34,2013-02-05 10:18:00,
2013-02-05 03:23:00,23.8,17.9,29.85,WNW,296,4.0,5.0,78,0.00,CLR,CLR,0.00,WeatherDisplay:10.34,2013-02-05 10:23:00,
2013-02-05 03:28:00,23.6,17.4,29.85,West,275,3.0,3.0,77,0.00,CLR,CLR,0.00,WeatherDisplay:10.34,2013-02-05 10:28:00,
2013-02-05 03:33:00,23.1,16.7,29.86,South,190,0.0,0.0,76,0.00,CLR,CLR,0.00,WeatherDisplay:10.34,2013-02-05 10:33:00,
2013-02-05 03:38:00,22.8,16.4,29.85,South,190,0.0,0.0,76,0.00,CLR,CLR,0.00,WeatherDisplay:10.34,2013-02-05 10:38:00,
2013-02-05 03:43:00,22.6,16.5,29.86,South,190,0.0,1.0,77,0.00,CLR,CLR,0.00,WeatherDisplay:10.34,2013-02-05 10:43:00,
2013-02-05 03:48:00,22.4,16.3,29.86,South,190,0.0,1.0,77,0.00,CLR,CLR,0.00,WeatherDisplay:10.34,2013-02-05 10:48:00,
2013-02-05 03:53:00,21.9,15.5,29.86,SE,136,2.0,3.0,76,0.00,CLR,CLR,0.00,WeatherDisplay:10.34,2013-02-05 10:53:00,
2013-02-05 03:58:00,21.1,15.0,29.85,SE,136,1.0,1.0,77,0.00,CLR,CLR,0.00,WeatherDisplay:10.34,2013-02-05 10:58:00,
2013-02-05 04:03:00,20.9,15.1,29.85,SE,136,0.0,0.0,78,0.00,CLR,CLR,0.00,WeatherDisplay:10.34,2013-02-05 11:03:00,
2013-02-05 04:08:00,20.6,14.8,29.85,SSE,164,8.0,8.0,78,0.00,CLR,CLR,0.00,WeatherDisplay:10.34,2013-02-05 11:08:00,
2013-02-05 04:13:00,20.3,14.8,29.86,SSE,164,0.0,1.0,79,0.00,CLR,CLR,0.00,WeatherDisplay:10.34,2013-02-05 11:13:00,
2013-02-05 04:18:00,20.3,15.1,29.86,SSW,195,3.0,3.0,80,0.00,CLR,CLR,0.00,WeatherDisplay:10.34,2013-02-05 11:18:00,
2013-02-05 04:23:00,20.3,15.4,29.86,SSW,196,1.0,1.0,81,0.00,CLR,CLR,0.00,WeatherDisplay:10.34,2013-02-05 11:23:00,
2013-02-05 04:28:00,20.4,15.5,29.86,SSW,195,2.0,3.0,81,0.00,CLR,CLR,0.00,WeatherDisplay:10.34,2013-02-05 11:28:00,
2013-02-05 04:33:00,20.7,16.1,29.86,SSW,196,1.0,2.0,82,0.00,CLR,CLR,0.00,WeatherDisplay:10.34,2013-02-05 11:33:00,
2013-02-05 04:38:00,20.9,16.3,29.86,SSW,195,4.0,4.0,82,0.00,CLR,CLR,0.00,WeatherDisplay:10.34,2013-02-05 11:38:00,
2013-02-05 04:43:00,21.2,16.8,29.86,West,271,0.0,1.0,83,0.00,CLR,CLR,0.00,WeatherDisplay:10.34,2013-02-05 11:43:00,
2013-02-05 04:48:00,21.4,17.0,29.86,ESE,106,4.0,4.0,83,0.00,CLR,CLR,0.00,WeatherDisplay:10.34,2013-02-05 11:48:00,
2013-02-05 04:53:00,21.5,16.9,29.86,ESE,106,0.0,0.0,82,0.00,CLR,CLR,0.00,WeatherDisplay:10.34,2013-02-05 11:53:00,
2013-02-05 04:58:00,21.5,16.9,29.87,ESE,106,0.0,0.0,82,0.00,CLR,CLR,0.00,WeatherDisplay:10.34,2013-02-05 11:58:00,
2013-02-05 05:03:00,21.5,16.9,29.87,WSW,257,3.0,3.0,82,0.00,CLR,CLR,0.00,WeatherDisplay:10.34,2013-02-05 12:03:00,
2013-02-05 05:08:00,21.6,17.0,29.87,WSW,257,0.0,0.0,82,0.00,CLR,CLR,0.00,WeatherDisplay:10.34,2013-02-05 12:08:00,
2013-02-05 05:13:00,21.6,17.2,29.87,WSW,256,1.0,1.0,83,0.00,CLR,CLR,0.00,WeatherDisplay:10.34,2013-02-05 12:13:00,
2013-02-05 05:18:00,21.7,17.3,29.87,WSW,257,0.0,1.0,83,0.00,CLR,CLR,0.00,WeatherDisplay:10.34,2013-02-05 12:18:00,
2013-02-05 05:23:00,21.9,17.5,29.87,WSW,257,1.0,1.0,83,0.00,CLR,CLR,0.00,WeatherDisplay:10.34,2013-02-05 12:23:00,
2013-02-05 05:28:00,22.0,17.6,29.87,WSW,257,0.0,0.0,83,0.00,CLR,CLR,0.00,WeatherDisplay:10.34,2013-02-05 12:28:00,
2013-02-05 05:33:00,22.1,17.7,29.87,WSW,256,0.0,0.0,83,0.00,CLR,CLR,0.00,WeatherDisplay:10.34,2013-02-05 12:33:00,
2013-02-05 05:38:00,22.2,17.8,29.87,WSW,257,2.0,2.0,83,0.00,CLR,CLR,0.00,WeatherDisplay:10.34,2013-02-05 12:38:00,
2013-02-05 05:43:00,22.3,17.9,29.87,WSW,257,2.0,2.0,83,0.00,CLR,CLR,0.00,WeatherDisplay:10.34,2013-02-05 12:43:00,
2013-02-05 05:48:00,22.4,18.0,29.87,SSW,195,0.0,0.0,83,0.00,CLR,CLR,0.00,WeatherDisplay:10.34,2013-02-05 12:48:00,
2013-02-05 05:53:00,22.4,18.0,29.86,WSW,253,1.0,2.0,83,0.00,CLR,CLR,0.00,WeatherDisplay:10.34,2013-02-05 12:53:00,
2013-02-05 05:58:00,22.6,18.2,29.86,NNE,15,4.0,4.0,83,0.00,CLR,CLR,0.00,WeatherDisplay:10.34,2013-02-05 12:58:00,
2013-02-05 06:03:00,23.0,18.6,29.86,SW,234,8.0,9.0,83,0.00,CLR,CLR,0.00,WeatherDisplay:10.34,2013-02-05 13:03:00,
2013-02-05 06:08:00,24.0,19.6,29.87,NE,42,7.0,9.0,83,0.00,CLR,CLR,0.00,WeatherDisplay:10.34,2013-02-05 13:08:00,
2013-02-05 06:13:00,24.7,20.0,29.86,NNW,346,0.0,0.0,82,0.00,CLR,CLR,0.00,WeatherDisplay:10.34,2013-02-05 13:13:00,
2013-02-05 06:18:00,24.8,19.8,29.86,NNW,345,1.0,1.0,81,0.00,CLR,CLR,0.00,WeatherDisplay:10.34,2013-02-05 13:18:00,
2013-02-05 06:23:00,24.9,19.6,29.86,NNW,346,2.0,2.0,80,0.00,CLR,CLR,0.00,WeatherDisplay:10.34,2013-02-05 13:23:00,
2013-02-05 06:28:00,24.8,19.5,29.86,South,179,0.0,0.0,80,0.00,CLR,CLR,0.00,WeatherDisplay:10.34,2013-02-05 13:28:00,
2013-02-05 06:33:00,24.6,19.3,29.86,SSE,152,5.0,5.0,80,0.00,CLR,CLR,0.00,WeatherDisplay:10.34,2013-02-05 13:33:00,
2013-02-05 06:38:00,24.3,19.0,29.86,SSE,152,0.0,0.0,80,0.00,CLR,CLR,0.00,WeatherDisplay:10.34,2013-02-05 13:38:00,
2013-02-05 06:43:00,24.2,18.9,29.86,SSE,152,0.0,0.0,80,0.00,CLR,CLR,0.00,WeatherDisplay:10.34,2013-02-05 13:43:00,
2013-02-05 06:48:00,23.9,18.3,29.86,SSE,152,2.0,2.0,79,0.00,CLR,CLR,0.00,WeatherDisplay:10.34,2013-02-05 13:48:00,
2013-02-05 06:53:00,23.6,18.0,29.86,South,184,3.0,3.0,79,0.00,CLR,CLR,0.00,WeatherDisplay:10.34,2013-02-05 13:53:00,
2013-02-05 06:58:00,23.5,18.2,29.86,South,184,0.0,0.0,80,0.00,CLR,CLR,0.00,WeatherDisplay:10.34,2013-02-05 13:58:00,
2013-02-05 07:03:00,23.4,18.1,29.86,South,183,1.0,2.0,80,0.00,OVC,OVC,0.00,WeatherDisplay:10.34,2013-02-05 14:03:00,
2013-02-05 07:08:00,23.4,18.1,29.86,South,183,0.0,1.0,80,0.00,OVC,OVC,0.00,WeatherDisplay:10.34,2013-02-05 14:08:00,
2013-02-05 07:13:00,23.3,18.0,29.86,South,184,0.0,0.0,80,0.00,OVC,OVC,0.00,WeatherDisplay:10.34,2013-02-05 14:13:00,
2013-02-05 07:18:00,23.2,18.2,29.86,NE,49,1.0,2.0,81,0.00,OVC,OVC,0.00,WeatherDisplay:10.34,2013-02-05 14:18:00,
2013-02-05 07:23:00,23.2,18.2,29.87,NE,48,0.0,0.0,81,0.00,OVC,OVC,0.00,WeatherDisplay:10.34,2013-02-05 14:23:00,
2013-02-05 07:28:00,23.2,18.2,29.87,North,5,4.0,5.0,81,0.00,OVC,OVC,0.00,WeatherDisplay:10.34,2013-02-05 14:28:00,
2013-02-05 07:33:00,23.0,18.0,29.86,NNW,346,6.0,7.0,81,0.00,OVC,OVC,0.00,WeatherDisplay:10.34,2013-02-05 14:33:00,
2013-02-05 07:38:00,22.8,18.1,29.86,North,355,0.0,1.0,82,0.00,OVC,OVC,0.00,WeatherDisplay:10.34,2013-02-05 14:38:00,
2013-02-05 07:43:00,22.8,18.1,29.87,North,355,0.0,1.0,82,0.00,CLR,CLR,0.00,WeatherDisplay:10.34,2013-02-05 14:43:00,
2013-02-05 07:48:00,22.8,18.1,29.87,North,355,0.0,1.0,82,0.00,SCT,SCT,0.00,WeatherDisplay:10.34,2013-02-05 14:48:00,
2013-02-05 07:53:00,22.9,18.2,29.87,North,355,0.0,0.0,82,0.00,SCT,SCT,0.00,WeatherDisplay:10.34,2013-02-05 14:53:00,
2013-02-05 07:58:00,23.0,18.3,29.87,North,355,0.0,0.0,82,0.00,BKN,BKN,0.00,WeatherDisplay:10.34,2013-02-05 14:58:00,
2013-02-05 08:03:00,23.1,18.4,29.87,North,355,0.0,0.0,82,0.00,OVC,OVC,0.00,WeatherDisplay:10.34,2013-02-05 15:03:00,
2013-02-05 08:08:00,23.2,18.8,29.87,North,355,0.0,0.0,83,0.00,OVC,OVC,0.00,WeatherDisplay:10.34,2013-02-05 15:08:00,
2013-02-05 08:13:00,23.4,19.0,29.87,North,355,0.0,1.0,83,0.00,OVC,OVC,0.00,WeatherDisplay:10.34,2013-02-05 15:13:00,
2013-02-05 08:18:00,23.6,19.2,29.87,North,355,0.0,1.0,83,0.00,OVC,OVC,0.00,WeatherDisplay:10.34,2013-02-05 15:18:00,
2013-02-05 08:23:00,23.8,19.4,29.87,North,355,0.0,0.0,83,0.00,OVC,OVC,0.00,WeatherDisplay:10.34,2013-02-05 15:23:00,
2013-02-05 08:28:00,23.9,19.5,29.87,North,355,0.0,0.0,83,0.00,OVC,OVC,0.00,WeatherDisplay:10.34,2013-02-05 15:28:00,
2013-02-05 08:33:00,24.1,19.7,29.87,North,355,0.0,0.0,83,0.00,OVC,OVC,0.00,WeatherDisplay:10.34,2013-02-05 15:33:00,
2013-02-05 08:38:00,24.3,19.9,29.87,West,273,0.0,0.0,83,0.00,OVC,OVC,0.00,WeatherDisplay:10.34,2013-02-05 15:38:00,
2013-02-05 08:43:00,24.4,20.0,29.87,West,273,2.0,2.0,83,0.00,OVC,OVC,0.00,WeatherDisplay:10.34,2013-02-05 15:43:00,
2013-02-05 08:48:00,24.7,20.3,29.87,NE,50,4.0,4.0,83,0.00,BKN,BKN,0.00,WeatherDisplay:10.34,2013-02-05 15:48:00,
2013-02-05 08:53:00,24.8,20.1,29.87,NE,42,2.0,2.0,82,0.00,BKN,BKN,0.00,WeatherDisplay:10.34,2013-02-05 15:53:00,
2013-02-05 08:58:00,25.0,20.3,29.87,North,5,5.0,5.0,82,0.00,BKN,BKN,0.00,WeatherDisplay:10.34,2013-02-05 15:58:00,
2013-02-05 09:03:00,24.8,19.8,29.86,NE,56,3.0,3.0,81,0.00,OVC,OVC,0.00,WeatherDisplay:10.34,2013-02-05 16:03:00,
2013-02-05 09:08:00,24.7,19.4,29.86,ENE,59,8.0,9.0,80,0.00,BKN,BKN,0.00,WeatherDisplay:10.34,2013-02-05 16:08:00,
2013-02-05 09:13:00,24.7,19.4,29.86,ENE,65,11.0,12.0,80,0.00,SCT,SCT,0.00,WeatherDisplay:10.34,2013-02-05 16:13:00,
2013-02-05 09:18:00,24.7,19.4,29.86,NNE,24,6.0,8.0,80,0.00,SCT,SCT,0.00,WeatherDisplay:10.34,2013-02-05 16:18:00,
2013-02-05 09:23:00,24.9,19.6,29.86,ENE,68,11.0,12.0,80,0.00,BKN,BKN,0.00,WeatherDisplay:10.34,2013-02-05 16:23:00,
2013-02-05 09:28:00,25.1,19.5,29.86,NNE,21,1.0,2.0,79,0.00,OVC,OVC,0.00,WeatherDisplay:10.34,2013-02-05 16:28:00,
2013-02-05 09:33:00,25.3,19.7,29.87,NNE,13,0.0,1.0,79,0.00,OVC,OVC,0.00,WeatherDisplay:10.34,2013-02-05 16:33:00,
2013-02-05 09:38:00,25.4,19.8,29.87,NNW,344,2.0,2.0,79,0.00,BKN,BKN,0.00,WeatherDisplay:10.34,2013-02-05 16:38:00,
2013-02-05 09:43:00,25.7,20.1,29.87,ENE,69,3.0,5.0,79,0.00,BKN,BKN,0.00,WeatherDisplay:10.34,2013-02-05 16:43:00,
2013-02-05 09:48:00,25.8,19.9,29.86,NE,56,5.0,7.0,78,0.00,SCT,SCT,0.00,WeatherDisplay:10.34,2013-02-05 16:48:00,
2013-02-05 09:53:00,26.1,19.9,29.86,NNE,33,2.0,2.0,77,0.00,BKN,BKN,0.00,WeatherDisplay:10.34,2013-02-05 16:53:00,
2013-02-05 09:59:00,26.3,20.1,29.86,NNW,339,1.0,3.0,77,0.00,SCT,SCT,0.00,WeatherDisplay:10.34,2013-02-05 16:59:00,
2013-02-05 10:04:00,26.4,20.2,29.86,NE,40,2.0,3.0,77,0.00,BKN,BKN,0.00,WeatherDisplay:10.34,2013-02-05 17:04:00,
2013-02-05 10:09:00,26.6,20.4,29.86,NNW,345,4.0,5.0,77,0.00,BKN,BKN,0.00,WeatherDisplay:10.34,2013-02-05 17:09:00,
2013-02-05 10:14:00,26.4,19.9,29.86,North,360,4.0,5.0,76,0.00,BKN,BKN,0.00,WeatherDisplay:10.34,2013-02-05 17:14:00,
2013-02-05 10:19:00,26.5,20.0,29.86,NE,48,2.0,2.0,76,0.00,SCT,SCT,0.00,WeatherDisplay:10.34,2013-02-05 17:19:00,
2013-02-05 10:24:00,26.7,20.1,29.87,NE,49,4.0,4.0,76,0.00,BKN,BKN,0.00,WeatherDisplay:10.34,2013-02-05 17:24:00,
2013-02-05 10:29:00,26.9,20.3,29.87,NNE,25,3.0,3.0,76,0.00,SCT,SCT,0.00,WeatherDisplay:10.34,2013-02-05 17:29:00,
2013-02-05 10:34:00,27.1,20.5,29.86,NW,324,5.0,5.0,76,0.00,SCT,SCT,0.00,WeatherDisplay:10.34,2013-02-05 17:34:00,
2013-02-05 10:39:00,27.4,20.8,29.86,WNW,290,1.0,1.0,76,0.00,BKN,BKN,0.00,WeatherDisplay:10.34,2013-02-05 17:39:00,
2013-02-05 10:44:00,27.7,21.1,29.86,WNW,290,2.0,2.0,76,0.00,BKN,BKN,0.00,WeatherDisplay:10.34,2013-02-05 17:44:00,
2013-02-05 10:49:00,27.8,20.9,29.86,NNE,31,1.0,1.0,75,0.00,OVC,OVC,0.00,WeatherDisplay:10.34,2013-02-05 17:49:00,
2013-02-05 10:54:00,27.9,21.0,29.86,North,360,2.0,3.0,75,0.00,OVC,OVC,0.00,WeatherDisplay:10.34,2013-02-05 17:54:00,
2013-02-05 10:59:00,27.8,20.9,29.86,North,5,2.0,3.0,75,0.00,OVC,OVC,0.00,WeatherDisplay:10.34,2013-02-05 17:59:00,
2013-02-05 11:04:00,27.9,21.3,29.86,North,360,0.0,0.0,76,0.00,SCT,SCT,0.00,WeatherDisplay:10.34,2013-02-05 18:04:00,
2013-02-05 11:10:00,28.3,21.4,29.84,NNW,347,3.0,3.0,75,0.00,SCT,SCT,0.00,WeatherDisplay:10.34,2013-02-05 18:10:00,
2013-02-05 11:15:00,29.3,22.4,29.84,West,269,7.0,7.0,75,0.00,CLR,CLR,0.00,WeatherDisplay:10.34,2013-02-05 18:15:00,
2013-02-05 11:20:00,30.1,22.8,29.84,NNW,339,7.0,8.0,74,0.00,CLR,CLR,0.00,WeatherDisplay:10.34,2013-02-05 18:20:00,
2013-02-05 11:25:00,30.9,22.6,29.85,North,360,3.0,3.0,71,0.00,CLR,CLR,0.00,WeatherDisplay:10.34,2013-02-05 18:25:00,
2013-02-05 11:30:00,31.7,23.3,29.85,North,6,1.0,3.0,71,0.00,CLR,CLR,0.00,WeatherDisplay:10.34,2013-02-05 18:30:00,
2013-02-05 11:35:00,33.0,23.6,29.84,ENE,65,2.0,3.0,68,0.00,CLR,CLR,0.00,WeatherDisplay:10.34,2013-02-05 18:35:00,
2013-02-05 11:40:00,33.6,23.1,29.84,East,85,2.0,0.0,65,0.00,CLR,CLR,0.00,WeatherDisplay:10.34,2013-02-05 18:40:00,
2013-02-05 11:45:00,34.2,23.7,29.83,ENE,61,4.0,4.0,65,0.00,CLR,CLR,0.00,WeatherDisplay:10.34,2013-02-05 18:45:00,
2013-02-05 11:50:00,34.5,23.2,29.83,East,92,2.0,0.0,63,0.00,CLR,CLR,0.00,WeatherDisplay:10.34,2013-02-05 18:50:00,
2013-02-05 11:55:00,35.0,23.7,29.82,East,96,2.0,3.0,63,0.00,CLR,CLR,0.00,WeatherDisplay:10.34,2013-02-05 18:55:00,
2013-02-05 12:00:00,35.6,23.5,29.82,ENE,69,3.0,7.0,61,0.00,CLR,CLR,0.00,WeatherDisplay:10.34,2013-02-05 19:00:00,
2013-02-05 12:05:00,36.3,23.7,29.82,East,90,9.0,10.0,60,0.00,CLR,CLR,0.00,WeatherDisplay:10.34,2013-02-05 19:05:00,
2013-02-05 12:10:00,36.8,24.6,29.81,East,93,8.0,12.0,61,0.00,CLR,CLR,0.00,WeatherDisplay:10.34,2013-02-05 19:10:00,
2013-02-05 12:15:00,37.2,24.6,29.81,ESE,107,9.0,10.0,60,0.00,CLR,CLR,0.00,WeatherDisplay:10.34,2013-02-05 19:15:00,
2013-02-05 12:20:00,37.5,24.9,29.81,ESE,118,7.0,9.0,60,0.00,CLR,CLR,0.00,WeatherDisplay:10.34,2013-02-05 19:20:00,
2013-02-05 12:25:00,38.0,24.9,29.81,East,79,3.0,7.0,59,0.00,CLR,CLR,0.00,WeatherDisplay:10.34,2013-02-05 19:25:00,
2013-02-05 12:30:00,38.8,25.7,29.81,ESE,104,5.0,7.0,59,0.00,CLR,CLR,0.00,WeatherDisplay:10.34,2013-02-05 19:30:00,
2013-02-05 12:35:00,38.8,25.3,29.80,ESE,111,8.0,9.0,58,0.00,FEW,FEW,0.00,WeatherDisplay:10.34,2013-02-05 19:35:00,
2013-02-05 12:40:00,38.7,24.7,29.80,ESE,111,1.0,5.0,57,0.00,SCT,SCT,0.00,WeatherDisplay:10.34,2013-02-05 19:40:00,
2013-02-05 12:45:00,39.0,25.9,29.79,NE,55,6.0,8.0,59,0.00,FEW,FEW,0.00,WeatherDisplay:10.34,2013-02-05 19:45:00,
2013-02-05 12:50:00,38.6,25.5,29.79,NE,55,4.0,4.0,59,0.00,CLR,CLR,0.00,WeatherDisplay:10.34,2013-02-05 19:50:00,
2013-02-05 12:55:00,38.7,25.6,29.78,NNE,29,6.0,9.0,59,0.00,CLR,CLR,0.00,WeatherDisplay:10.34,2013-02-05 19:55:00,
2013-02-05 13:00:00,37.8,24.7,29.79,North,360,11.0,11.0,59,0.00,CLR,CLR,0.00,WeatherDisplay:10.34,2013-02-05 20:00:00,
2013-02-05 13:05:00,37.5,24.9,29.79,NNE,31,8.0,9.0,60,0.00,CLR,CLR,0.00,WeatherDisplay:10.34,2013-02-05 20:05:00,
2013-02-05 13:10:00,37.4,24.4,29.79,North,355,7.0,10.0,59,0.00,CLR,CLR,0.00,WeatherDisplay:10.34,2013-02-05 20:10:00,
2013-02-05 13:15:00,37.5,24.9,29.77,North,9,8.0,8.0,60,0.00,CLR,CLR,0.00,WeatherDisplay:10.34,2013-02-05 20:15:00,
2013-02-05 13:20:00,37.9,25.2,29.77,North,355,5.0,8.0,60,0.00,CLR,CLR,0.00,WeatherDisplay:10.34,2013-02-05 20:20:00,
2013-02-05 13:25:00,38.0,24.5,29.77,NNW,338,7.0,7.0,58,0.00,CLR,CLR,0.00,WeatherDisplay:10.34,2013-02-05 20:25:00,
2013-02-05 13:30:00,38.3,24.8,29.77,North,360,6.0,9.0,58,0.00,CLR,CLR,0.00,WeatherDisplay:10.34,2013-02-05 20:30:00,
2013-02-05 13:35:00,38.6,25.5,29.77,North,11,3.0,7.0,59,0.00,CLR,CLR,0.00,WeatherDisplay:10.34,2013-02-05 20:35:00,
2013-02-05 13:40:00,38.5,25.0,29.76,NNW,348,7.0,7.0,58,0.00,CLR,CLR,0.00,WeatherDisplay:10.34,2013-02-05 20:40:00,
2013-02-05 13:45:00,38.4,24.9,29.76,NE,38,6.0,7.0,58,0.00,CLR,CLR,0.00,WeatherDisplay:10.34,2013-02-05 20:45:00,
2013-02-05 13:50:00,38.5,25.0,29.76,NE,44,4.0,4.0,58,0.00,CLR,CLR,0.00,WeatherDisplay:10.34,2013-02-05 20:50:00,
2013-02-05 13:55:00,39.1,25.6,29.76,NNE,24,6.0,9.0,58,0.00,CLR,CLR,0.00,WeatherDisplay:10.34,2013-02-05 20:55:00,
2013-02-05 14:00:00,39.6,25.6,29.76,ENE,71,3.0,5.0,57,0.00,CLR,CLR,0.00,WeatherDisplay:10.34,2013-02-05 21:00:00,
2013-02-05 14:05:00,39.9,25.5,29.76,NE,40,5.0,5.0,56,0.00,CLR,CLR,0.00,WeatherDisplay:10.34,2013-02-05 21:05:00,
2013-02-05 14:11:00,40.1,25.6,29.76,ENE,59,3.0,3.0,56,0.00,CLR,CLR,0.00,WeatherDisplay:10.34,2013-02-05 21:11:00,
2013-02-05 14:16:00,40.0,25.6,29.76,ENE,73,8.0,10.0,56,0.00,CLR,CLR,0.00,WeatherDisplay:10.34,2013-02-05 21:16:00,
2013-02-05 14:21:00,40.0,25.1,29.74,ENE,72,7.0,10.0,55,0.00,CLR,CLR,0.00,WeatherDisplay:10.34,2013-02-05 21:21:00,
2013-02-05 14:26:00,39.9,25.0,29.74,NNE,22,5.0,7.0,55,0.00,CLR,CLR,0.00,WeatherDisplay:10.34,2013-02-05 21:26:00,
2013-02-05 14:31:00,39.5,25.1,29.74,North,360,5.0,7.0,56,0.00,CLR,CLR,0.00,WeatherDisplay:10.34,2013-02-05 21:31:00,
2013-02-05 14:36:00,38.8,24.4,29.74,NNW,338,6.0,6.0,56,0.00,CLR,CLR,0.00,WeatherDisplay:10.34,2013-02-05 21:36:00,
2013-02-05 14:41:00,38.9,25.4,29.74,NE,49,6.0,8.0,58,0.00,CLR,CLR,0.00,WeatherDisplay:10.34,2013-02-05 21:41:00,
2013-02-05 14:46:00,38.9,25.4,29.74,NE,56,5.0,5.0,58,0.00,CLR,CLR,0.00,WeatherDisplay:10.34,2013-02-05 21:46:00,
2013-02-05 14:51:00,38.3,24.8,29.74,NNW,329,3.0,5.0,58,0.00,CLR,CLR,0.00,WeatherDisplay:10.34,2013-02-05 21:51:00,
2013-02-05 14:56:00,38.5,25.0,29.74,NNE,14,8.0,9.0,58,0.00,CLR,CLR,0.00,WeatherDisplay:10.34,2013-02-05 21:56:00,
2013-02-05 15:01:00,38.3,24.8,29.74,NNE,33,5.0,7.0,58,0.00,CLR,CLR,0.00,WeatherDisplay:10.34,2013-02-05 22:01:00,
2013-02-05 15:06:00,38.4,24.9,29.74,North,10,7.0,8.0,58,0.00,CLR,CLR,0.00,WeatherDisplay:10.34,2013-02-05 22:06:00,
2013-02-05 15:11:00,38.5,25.0,29.74,North,9,3.0,5.0,58,0.00,CLR,CLR,0.00,WeatherDisplay:10.34,2013-02-05 22:11:00,
2013-02-05 15:16:00,38.5,25.0,29.74,East,94,4.0,4.0,58,0.00,CLR,CLR,0.00,WeatherDisplay:10.34,2013-02-05 22:16:00,
2013-02-05 15:21:00,38.7,25.2,29.74,ENE,61,5.0,5.0,58,0.00,CLR,CLR,0.00,WeatherDisplay:10.34,2013-02-05 22:21:00,
2013-02-05 15:26:00,38.8,26.9,29.74,NE,34,6.0,6.0,62,0.00,CLR,CLR,0.00,WeatherDisplay:10.34,2013-02-05 22:26:00,
2013-02-05 15:31:00,38.7,25.2,29.73,ENE,62,6.0,7.0,58,0.00,CLR,CLR,0.00,WeatherDisplay:10.34,2013-02-05 22:31:00,
2013-02-05 15:36:00,38.5,25.0,29.73,North,5,3.0,5.0,58,0.00,CLR,CLR,0.00,WeatherDisplay:10.34,2013-02-05 22:36:00,
2013-02-05 15:41:00,38.2,24.7,29.73,North,355,4.0,5.0,58,0.00,CLR,CLR,0.00,WeatherDisplay:10.34,2013-02-05 22:41:00,
2013-02-05 15:46:00,37.9,24.8,29.74,NNW,336,4.0,5.0,59,0.00,CLR,CLR,0.00,WeatherDisplay:10.34,2013-02-05 22:46:00,
2013-02-05 15:51:00,37.6,25.0,29.74,North,349,0.0,1.0,60,0.00,CLR,CLR,0.00,WeatherDisplay:10.34,2013-02-05 22:51:00,
2013-02-05 15:56:00,37.7,25.1,29.74,NE,48,2.0,2.0,60,0.00,CLR,CLR,0.00,WeatherDisplay:10.34,2013-02-05 22:56:00,
2013-02-05 16:01:00,37.5,24.9,29.74,NNE,22,3.0,5.0,60,0.00,CLR,CLR,0.00,WeatherDisplay:10.34,2013-02-05 23:01:00,
2013-02-05 16:06:00,37.5,25.3,29.74,NNE,26,1.0,2.0,61,0.00,CLR,CLR,0.00,WeatherDisplay:10.34,2013-02-05 23:06:00,
2013-02-05 16:11:00,37.7,25.1,29.73,NE,37,1.0,2.0,60,0.00,CLR,CLR,0.00,WeatherDisplay:10.34,2013-02-05 23:11:00,
2013-02-05 16:16:00,37.7,24.6,29.73,NE,37,0.0,1.0,59,0.00,CLR,CLR,0.00,WeatherDisplay:10.34,2013-02-05 23:16:00,
2013-02-05 16:21:00,37.5,24.9,29.73,NE,37,2.0,3.0,60,0.00,CLR,CLR,0.00,WeatherDisplay:10.34,2013-02-05 23:21:00,
2013-02-05 16:26:00,37.3,25.1,29.72,ENE,69,1.0,2.0,61,0.00,CLR,CLR,0.00,WeatherDisplay:10.34,2013-02-05 23:26:00,
2013-02-05 16:31:00,37.2,25.0,29.73,NE,51,1.0,2.0,61,0.00,CLR,CLR,0.00,WeatherDisplay:10.34,2013-02-05 23:31:00,
2013-02-05 16:36:00,36.9,24.7,29.73,NNE,23,2.0,2.0,61,0.00,CLR,CLR,0.00,WeatherDisplay:10.34,2013-02-05 23:36:00,
2013-02-05 16:41:00,36.4,24.6,29.72,NE,53,5.0,5.0,62,0.00,CLR,CLR,0.00,WeatherDisplay:10.34,2013-02-05 23:41:00,
2013-02-05 16:46:00,36.3,24.9,29.72,NE,47,2.0,2.0,63,0.00,CLR,CLR,0.00,WeatherDisplay:10.34,2013-02-05 23:46:00,
2013-02-05 16:51:00,36.1,24.7,29.72,NE,47,0.0,0.0,63,0.00,CLR,CLR,0.00,WeatherDisplay:10.34,2013-02-05 23:51:00,
2013-02-05 16:57:00,35.9,24.9,29.72,West,278,1.0,2.0,64,0.00,CLR,CLR,0.00,WeatherDisplay:10.34,2013-02-05 23:57:00,
2013-02-05 17:02:00,35.3,24.3,29.72,NE,41,5.0,7.0,64,0.00,CLR,CLR,0.00,WeatherDisplay:10.34,2013-02-06 00:02:00,
2013-02-05 17:07:00,35.0,24.4,29.73,North,360,1.0,3.0,65,0.00,CLR,CLR,0.00,WeatherDisplay:10.34,2013-02-06 00:07:00,
2013-02-05 17:13:00,34.4,24.2,29.73,NNE,17,0.0,1.0,66,0.00,CLR,CLR,0.00,WeatherDisplay:10.34,2013-02-06 00:13:00,
2013-02-05 17:18:00,33.7,23.5,29.73,NNE,27,5.0,7.0,66,0.00,CLR,CLR,0.00,WeatherDisplay:10.34,2013-02-06 00:18:00,
2013-02-05 17:23:00,33.1,23.3,29.73,WNW,284,8.0,8.0,67,0.00,OVC,OVC,0.00,WeatherDisplay:10.34,2013-02-06 00:23:00,
2013-02-05 17:28:00,32.5,23.1,29.73,ENE,60,8.0,8.0,68,0.00,OVC,OVC,0.00,WeatherDisplay:10.34,2013-02-06 00:28:00,
2013-02-05 17:33:00,32.2,23.2,29.73,West,268,3.0,5.0,69,0.00,OVC,OVC,0.00,WeatherDisplay:10.34,2013-02-06 00:33:00,
2013-02-05 17:38:00,31.7,23.0,29.73,East,80,11.0,11.0,70,0.00,OVC,OVC,0.00,WeatherDisplay:10.34,2013-02-06 00:38:00,
2013-02-05 17:43:00,31.6,22.9,29.73,WNW,292,6.0,10.0,70,0.00,OVC,OVC,0.00,WeatherDisplay:10.34,2013-02-06 00:43:00,
2013-02-05 17:48:00,31.2,22.9,29.73,NE,46,6.0,7.0,71,0.00,OVC,OVC,0.00,WeatherDisplay:10.34,2013-02-06 00:48:00,
2013-02-05 17:53:00,31.0,22.7,29.73,WNW,288,7.0,7.0,71,0.00,OVC,OVC,0.00,WeatherDisplay:10.34,2013-02-06 00:53:00,
2013-02-05 17:58:00,30.6,22.6,29.73,NNW,334,6.0,6.0,72,0.00,OVC,OVC,0.00,WeatherDisplay:10.34,2013-02-06 00:58:00,
2013-02-05 18:03:00,30.3,22.7,29.73,NNE,20,5.0,5.0,73,0.00,CLR,CLR,0.00,WeatherDisplay:10.34,2013-02-06 01:03:00,
2013-02-05 18:08:00,30.2,22.6,29.73,NNW,344,2.0,3.0,73,0.00,CLR,CLR,0.00,WeatherDisplay:10.34,2013-02-06 01:08:00,
2013-02-05 18:13:00,30.0,22.4,29.72,NNE,17,3.0,5.0,73,0.00,CLR,CLR,0.00,WeatherDisplay:10.34,2013-02-06 01:13:00,
2013-02-05 18:18:00,29.9,22.3,29.72,WNW,292,2.0,2.0,73,0.00,CLR,CLR,0.00,WeatherDisplay:10.34,2013-02-06 01:18:00,
2013-02-05 18:23:00,29.8,22.2,29.72,NE,51,0.0,1.0,73,0.00,CLR,CLR,0.00,WeatherDisplay:10.34,2013-02-06 01:23:00,
2013-02-05 18:28:00,29.6,22.0,29.72,ENE,58,3.0,3.0,73,0.00,CLR,CLR,0.00,WeatherDisplay:10.34,2013-02-06 01:28:00,
2013-02-05 18:33:00,29.4,22.1,29.73,WNW,302,2.0,2.0,74,0.00,CLR,CLR,0.00,WeatherDisplay:10.34,2013-02-06 01:33:00,
2013-02-05 18:38:00,29.4,22.1,29.73,WSW,257,6.0,12.0,74,0.00,CLR,CLR,0.00,WeatherDisplay:10.34,2013-02-06 01:38:00,
2013-02-05 18:43:00,29.5,22.6,29.73,East,92,6.0,8.0,75,0.00,CLR,CLR,0.00,WeatherDisplay:10.34,2013-02-06 01:43:00,
2013-02-05 18:48:00,29.6,22.6,29.73,West,277,1.0,5.0,75,0.00,CLR,CLR,0.00,WeatherDisplay:10.34,2013-02-06 01:48:00,
2013-02-05 18:53:00,29.8,22.5,29.72,NW,319,12.0,12.0,74,0.00,CLR,CLR,0.00,WeatherDisplay:10.34,2013-02-06 01:53:00,
2013-02-05 18:58:00,29.8,22.5,29.72,West,269,9.0,9.0,74,0.00,CLR,CLR,0.00,WeatherDisplay:10.34,2013-02-06 01:58:00,
2013-02-05 19:03:00,29.8,22.5,29.73,ENE,67,2.0,2.0,74,0.00,CLR,CLR,0.00,WeatherDisplay:10.34,2013-02-06 02:03:00,
2013-02-05 19:08:00,29.7,22.4,29.73,WSW,238,1.0,3.0,74,0.00,CLR,CLR,0.00,WeatherDisplay:10.34,2013-02-06 02:08:00,
2013-02-05 19:13:00,29.6,22.3,29.72,SW,229,2.0,3.0,74,0.00,CLR,CLR,0.00,WeatherDisplay:10.34,2013-02-06 02:13:00,
2013-02-05 19:18:00,29.3,21.7,29.72,SW,229,0.0,0.0,73,0.00,CLR,CLR,0.00,WeatherDisplay:10.34,2013-02-06 02:18:00,
2013-02-05 19:23:00,29.0,21.7,29.72,SW,229,0.0,1.0,74,0.00,CLR,CLR,0.00,WeatherDisplay:10.34,2013-02-06 02:23:00,
2013-02-05 19:28:00,28.6,21.7,29.71,ENE,72,4.0,4.0,75,0.00,CLR,CLR,0.00,WeatherDisplay:10.34,2013-02-06 02:28:00,
2013-02-05 19:33:00,28.5,21.6,29.72,West,280,0.0,1.0,75,0.00,CLR,CLR,0.00,WeatherDisplay:10.34,2013-02-06 02:33:00,
2013-02-05 19:39:00,28.3,21.4,29.72,West,280,2.0,2.0,75,0.00,CLR,CLR,0.00,WeatherDisplay:10.34,2013-02-06 02:39:00,
2013-02-05 19:44:00,28.0,21.1,29.72,WNW,287,1.0,2.0,75,0.00,CLR,CLR,0.00,WeatherDisplay:10.34,2013-02-06 02:44:00,
2013-02-05 19:49:00,27.6,21.0,29.72,WNW,287,2.0,2.0,76,0.00,CLR,CLR,0.00,WeatherDisplay:10.34,2013-02-06 02:49:00,
2013-02-05 19:54:00,27.4,20.8,29.71,WNW,287,0.0,1.0,76,0.00,CLR,CLR,0.00,WeatherDisplay:10.34,2013-02-06 02:54:00,
2013-02-05 19:59:00,27.2,20.6,29.71,WNW,287,5.0,5.0,76,0.00,CLR,CLR,0.00,WeatherDisplay:10.34,2013-02-06 02:59:00,
2013-02-05 20:04:00,26.9,20.3,29.70,WNW,287,2.0,3.0,76,0.00,CLR,CLR,0.00,WeatherDisplay:10.34,2013-02-06 03:04:00,
2013-02-05 20:09:00,26.7,20.5,29.70,West,271,4.0,5.0,77,0.00,CLR,CLR,0.00,WeatherDisplay:10.34,2013-02-06 03:09:00,
2013-02-05 20:14:00,26.7,20.8,29.70,West,271,0.0,1.0,78,0.00,CLR,CLR,0.00,WeatherDisplay:10.34,2013-02-06 03:14:00,
2013-02-05 20:19:00,26.5,22.6,29.70,West,271,1.0,2.0,85,0.00,CLR,CLR,0.00,WeatherDisplay:10.34,2013-02-06 03:19:00,
2013-02-05 20:24:00,26.5,20.6,29.70,West,271,1.0,1.0,78,0.00,CLR,CLR,0.00,WeatherDisplay:10.34,2013-02-06 03:24:00,
2013-02-05 20:29:00,26.4,20.8,29.69,West,271,1.0,2.0,79,0.00,CLR,CLR,0.00,WeatherDisplay:10.34,2013-02-06 03:29:00,
2013-02-05 20:34:00,26.2,20.6,29.70,NNW,344,3.0,3.0,79,0.00,CLR,CLR,0.00,WeatherDisplay:10.34,2013-02-06 03:34:00,
2013-02-05 20:39:00,25.9,20.3,29.70,NNW,344,0.0,0.0,79,0.00,CLR,CLR,0.00,WeatherDisplay:10.34,2013-02-06 03:39:00,
2013-02-05 20:44:00,25.8,20.2,29.70,NNW,344,0.0,1.0,79,0.00,CLR,CLR,0.00,WeatherDisplay:10.34,2013-02-06 03:44:00,
2013-02-05 20:49:00,25.7,20.1,29.70,NNW,344,0.0,0.0,79,0.00,CLR,CLR,0.00,WeatherDisplay:10.34,2013-02-06 03:49:00,
2013-02-05 20:55:00,25.5,19.9,29.69,NNW,344,0.0,0.0,79,0.00,CLR,CLR,0.00,WeatherDisplay:10.34,2013-02-06 03:55:00,
2013-02-05 21:00:00,25.4,19.8,29.69,NNW,344,0.0,0.0,79,0.00,CLR,CLR,0.00,WeatherDisplay:10.34,2013-02-06 04:00:00,
2013-02-05 21:05:00,25.2,19.3,29.69,NNW,344,0.0,1.0,78,0.00,CLR,CLR,0.00,WeatherDisplay:10.34,2013-02-06 04:05:00,
2013-02-05 21:10:00,24.9,19.3,29.69,NNW,344,0.0,0.0,79,0.00,CLR,CLR,0.00,WeatherDisplay:10.34,2013-02-06 04:10:00,
2013-02-05 21:15:00,24.5,18.6,29.70,NNW,344,0.0,0.0,78,0.00,CLR,CLR,0.00,WeatherDisplay:10.34,2013-02-06 04:15:00,
2013-02-05 21:20:00,24.0,18.4,29.70,NNW,344,1.0,1.0,79,0.00,CLR,CLR,0.00,WeatherDisplay:10.34,2013-02-06 04:20:00,
2013-02-05 21:25:00,23.8,18.5,29.70,NNW,344,0.0,0.0,80,0.00,CLR,CLR,0.00,WeatherDisplay:10.34,2013-02-06 04:25:00,
2013-02-05 21:30:00,23.7,18.4,29.70,NNW,337,0.0,0.0,80,0.00,CLR,CLR,0.00,WeatherDisplay:10.34,2013-02-06 04:30:00,
2013-02-05 21:35:00,23.5,18.2,29.70,NNW,344,0.0,0.0,80,0.00,CLR,CLR,0.00,WeatherDisplay:10.34,2013-02-06 04:35:00,
2013-02-05 21:41:00,23.3,18.0,29.70,NNW,344,1.0,0.0,80,0.00,CLR,CLR,0.00,WeatherDisplay:10.34,2013-02-06 04:41:00,
2013-02-05 21:46:00,23.2,18.2,29.70,West,268,5.0,5.0,81,0.00,CLR,CLR,0.00,WeatherDisplay:10.34,2013-02-06 04:46:00,
2013-02-05 21:51:00,23.2,18.5,29.69,West,268,2.0,2.0,82,0.00,CLR,CLR,0.00,WeatherDisplay:10.34,2013-02-06 04:51:00,
2013-02-05 21:56:00,23.3,18.6,29.70,SSE,150,0.0,2.0,82,0.00,CLR,CLR,0.00,WeatherDisplay:10.34,2013-02-06 04:56:00,
2013-02-05 22:00:00,23.2,18.2,29.70,SSW,199,4.0,5.0,81,0.00,CLR,CLR,0.00,WeatherDisplay:10.34,2013-02-06 05:00:00,
2013-02-05 22:01:00,23.1,18.1,29.70,SSW,199,3.0,3.0,81,0.00,CLR,CLR,0.00,WeatherDisplay:10.34,2013-02-06 05:01:00,
2013-02-05 22:02:00,23.0,18.0,29.70,NW,307,0.0,2.0,81,0.00,CLR,CLR,0.00,WeatherDisplay:10.34,2013-02-06 05:02:00,
2013-02-05 22:07:00,23.0,18.3,29.70,South,182,4.0,4.0,82,0.00,CLR,CLR,0.00,WeatherDisplay:10.34,2013-02-06 05:07:00,
2013-02-05 22:12:00,22.8,17.8,29.69,SSW,192,0.0,0.0,81,0.00,CLR,CLR,0.00,WeatherDisplay:10.34,2013-02-06 05:12:00,
2013-02-05 22:17:00,22.6,17.9,29.69,SSW,192,0.0,0.0,82,0.00,CLR,CLR,0.00,WeatherDisplay:10.34,2013-02-06 05:17:00,
2013-02-05 22:22:00,22.4,17.5,29.70,SE,146,2.0,2.0,81,0.00,CLR,CLR,0.00,WeatherDisplay:10.34,2013-02-06 05:22:00,
2013-02-05 22:27:00,22.3,17.6,29.70,WSW,252,1.0,1.0,82,0.00,CLR,CLR,0.00,WeatherDisplay:10.34,2013-02-06 05:27:00,
2013-02-05 22:32:00,22.3,17.9,29.70,SSW,194,1.0,3.0,83,0.00,CLR,CLR,0.00,WeatherDisplay:10.34,2013-02-06 05:32:00,
2013-02-05 22:37:00,22.4,18.0,29.70,West,261,2.0,3.0,83,0.00,CLR,CLR,0.00,WeatherDisplay:10.34,2013-02-06 05:37:00,
2013-02-05 22:42:00,22.5,18.1,29.70,SW,218,1.0,3.0,83,0.00,CLR,CLR,0.00,WeatherDisplay:10.34,2013-02-06 05:42:00,
2013-02-05 22:47:00,22.5,18.1,29.70,ENE,72,1.0,2.0,83,0.00,CLR,CLR,0.00,WeatherDisplay:10.34,2013-02-06 05:47:00,
2013-02-05 22:52:00,22.5,18.1,29.70,WSW,244,0.0,1.0,83,0.00,CLR,CLR,0.00,WeatherDisplay:10.34,2013-02-06 05:52:00,
2013-02-05 22:57:00,22.5,18.1,29.70,East,95,5.0,8.0,83,0.00,CLR,CLR,0.00,WeatherDisplay:10.34,2013-02-06 05:57:00,
2013-02-05 23:02:00,22.7,18.6,29.70,SW,233,5.0,5.0,84,0.00,CLR,CLR,0.00,WeatherDisplay:10.34,2013-02-06 06:02:00,
2013-02-05 23:07:00,22.7,18.3,29.70,SW,233,0.0,0.0,83,0.00,CLR,CLR,0.00,WeatherDisplay:10.34,2013-02-06 06:07:00,
2013-02-05 23:12:00,22.6,18.2,29.70,SW,233,0.0,0.0,83,0.00,CLR,CLR,0.00,WeatherDisplay:10.34,2013-02-06 06:12:00,
2013-02-05 23:17:00,22.5,18.1,29.69,SW,233,0.0,0.0,83,0.00,CLR,CLR,0.00,WeatherDisplay:10.34,2013-02-06 06:17:00,
2013-02-05 23:22:00,22.5,18.1,29.69,SW,233,0.0,0.0,83,0.00,CLR,CLR,0.00,WeatherDisplay:10.34,2013-02-06 06:22:00,
2013-02-05 23:27:00,22.4,18.0,29.69,SW,233,0.0,0.0,83,0.00,CLR,CLR,0.00,WeatherDisplay:10.34,2013-02-06 06:27:00,
2013-02-05 23:32:00,22.5,18.1,29.69,SW,233,1.0,2.0,83,0.00,CLR,CLR,0.00,WeatherDisplay:10.34,2013-02-06 06:32:00,
2013-02-05 23:37:00,22.5,18.4,29.69,SW,233,0.0,0.0,84,0.00,CLR,CLR,0.00,WeatherDisplay:10.34,2013-02-06 06:37:00,
2013-02-05 23:42:00,22.3,17.9,29.69,SE,138,4.0,4.0,83,0.00,CLR,CLR,0.00,WeatherDisplay:10.34,2013-02-06 06:42:00,
2013-02-05 23:47:00,22.1,17.7,29.69,SE,140,0.0,0.0,83,0.00,CLR,CLR,0.00,WeatherDisplay:10.34,2013-02-06 06:47:00,
2013-02-05 23:52:00,22.0,17.9,29.69,SE,140,0.0,1.0,84,0.00,CLR,CLR,0.00,WeatherDisplay:10.34,2013-02-06 06:52:00,
2013-02-05 23:57:00,22.1,18.0,29.69,SE,140,1.0,1.0,84,0.00,CLR,CLR,0.00,WeatherDisplay:10.34,2013-02-06 06:57:00,